Time;durP1;ratioP1;P1;durP2;ratioP2;P2;SDS_P1;SDS_P2;PMS_P1;PMS_P2;Temp;Humidity;BMP_temperature;BMP_pressure;BME280_temperature;BME280_humidity;BME280_pressure;Samples;Min_cycle;Max_cycle;Signal;HPM_P1;HPM_P2
2023/01/30 00:01:44;;;;;;;17.65;7.22;;;6.80;99.90;;;;;;5005931;28;20038;-73
2023/01/30 00:04:13;;;;;;;22.90;7.57;;;6.80;99.90;;;;;;5006882;28;20033;-71
2023/01/30 00:06:39;;;;;;;18.58;7.35;;;6.80;99.90;;;;;;5006843;28;20061;-70
2023/01/30 00:09:05;;;;;;;18.80;7.38;;;6.70;99.90;;;;;;5005886;28;20446;-71
2023/01/30 00:11:32;;;;;;;19.02;7.88;;;6.70;99.90;;;;;;5006564;28;20088;-71
2023/01/30 00:13:58;;;;;;;23.40;8.00;;;6.70;99.90;;;;;;5007367;28;20088;-71
2023/01/30 00:16:24;;;;;;;15.50;6.18;;;6.70;99.90;;;;;;5007217;28;20053;-72
2023/01/30 00:18:49;;;;;;;19.48;7.43;;;6.80;99.90;;;;;;5007626;28;20505;-71
2023/01/30 00:21:15;;;;;;;15.57;6.18;;;6.80;99.90;;;;;;5006978;28;21194;-70
2023/01/30 00:23:41;;;;;;;13.80;6.72;;;6.80;99.90;;;;;;5007093;28;20030;-71
2023/01/30 00:26:08;;;;;;;18.17;7.75;;;6.80;99.90;;;;;;5010205;28;20207;-71
2023/01/30 00:28:34;;;;;;;14.38;7.00;;;6.80;99.90;;;;;;5006396;28;20030;-72
2023/01/30 00:31:00;;;;;;;22.70;7.43;;;6.80;99.90;;;;;;5007237;28;20104;-71
2023/01/30 00:33:26;;;;;;;16.48;6.53;;;6.80;99.90;;;;;;5005561;28;20026;-71
2023/01/30 00:35:53;;;;;;;14.07;5.53;;;6.80;99.90;;;;;;5006571;28;20719;-71
2023/01/30 00:38:19;;;;;;;14.55;6.22;;;6.80;99.90;;;;;;5007122;28;20478;-72
2023/01/30 00:40:46;;;;;;;13.75;5.95;;;6.80;99.90;;;;;;5006782;28;20057;-71
2023/01/30 00:48:44;;;;;;;10.15;4.68;;;6.80;99.90;;;;;;5003573;28;20045;-71
2023/01/30 00:51:10;;;;;;;16.75;4.65;;;6.80;99.90;;;;;;5004881;28;20026;-71
2023/01/30 00:53:35;;;;;;;11.90;3.90;;;6.90;99.90;;;;;;5007088;28;20037;-73
2023/01/30 00:56:01;;;;;;;9.63;3.35;;;6.90;99.90;;;;;;5006210;28;20033;-70
2023/01/30 00:58:28;;;;;;;7.72;2.88;;;7.00;99.90;;;;;;5007309;28;20399;-70
2023/01/30 01:00:54;;;;;;;12.50;3.45;;;7.00;99.90;;;;;;5005363;28;20068;-71
2023/01/30 01:03:20;;;;;;;8.23;3.38;;;7.10;99.90;;;;;;5005127;28;20411;-71
2023/01/30 01:05:46;;;;;;;9.63;2.75;;;7.20;99.90;;;;;;5006473;28;20100;-71
2023/01/30 01:08:12;;;;;;;9.18;3.25;;;7.20;99.90;;;;;;5005114;28;20709;-71
2023/01/30 01:10:37;;;;;;;10.23;2.85;;;7.30;99.90;;;;;;5005485;28;20121;-71
2023/01/30 01:13:05;;;;;;;8.70;2.45;;;7.30;99.90;;;;;;5004621;28;20383;-69
2023/01/30 01:15:32;;;;;;;9.32;2.78;;;7.40;99.90;;;;;;5010477;28;20040;-71
2023/01/30 01:17:57;;;;;;;10.80;3.35;;;7.40;99.90;;;;;;5010174;28;20033;-71
2023/01/30 01:20:23;;;;;;;9.85;3.13;;;7.50;99.90;;;;;;5010037;28;20030;-71
2023/01/30 01:22:55;;;;;;;13.95;4.32;;;7.50;99.90;;;;;;5010122;28;20437;-70
2023/01/30 01:25:22;;;;;;;12.95;2.90;;;7.50;99.90;;;;;;5007902;28;20045;-71
2023/01/30 01:27:49;;;;;;;17.15;3.20;;;7.50;99.90;;;;;;5007087;28;20038;-70
2023/01/30 01:30:15;;;;;;;10.80;2.80;;;7.50;99.90;;;;;;5008313;28;20037;-71
2023/01/30 01:32:40;;;;;;;10.13;2.58;;;7.50;99.90;;;;;;5008455;28;20036;-71
2023/01/30 01:35:06;;;;;;;12.75;2.60;;;7.50;99.90;;;;;;5010442;28;20394;-71
2023/01/30 01:37:32;;;;;;;12.73;2.67;;;7.50;99.90;;;;;;5010110;28;20761;-71
2023/01/30 01:42:42;;;;;;;11.25;2.70;;;7.50;99.90;;;;;;5005950;28;20084;-71
2023/01/30 01:45:23;;;;;;;14.02;3.10;;;7.50;99.90;;;;;;5010463;28;20030;-71
2023/01/30 01:47:49;;;;;;;7.80;2.53;;;7.50;99.90;;;;;;5002445;28;20453;-71
2023/01/30 01:50:19;;;;;;;7.85;2.25;;;7.50;99.90;;;;;;5009086;28;20033;-70
2023/01/30 01:52:46;;;;;;;6.63;2.45;;;7.50;99.90;;;;;;5007984;28;20121;-72
2023/01/30 01:55:14;;;;;;;9.57;2.63;;;7.50;99.90;;;;;;5007931;28;20045;-71
2023/01/30 01:57:57;;;;;;;11.40;2.30;;;7.50;99.90;;;;;;5004256;28;20053;-71
2023/01/30 02:00:24;;;;;;;13.23;3.30;;;7.50;99.90;;;;;;5007562;28;20030;-71
2023/01/30 02:03:03;;;;;;;11.15;2.55;;;7.40;99.90;;;;;;5007545;28;20026;-70
2023/01/30 02:05:36;;;;;;;6.93;2.22;;;7.40;99.90;;;;;;5009368;28;20092;-70
2023/01/30 02:08:10;;;;;;;9.30;2.65;;;7.40;99.90;;;;;;5008745;28;20029;-70
2023/01/30 02:10:59;;;;;;;8.27;2.35;;;7.30;99.90;;;;;;5009782;28;20056;-70
2023/01/30 02:13:25;;;;;;;13.88;2.90;;;7.40;99.90;;;;;;5005827;28;20095;-70
2023/01/30 02:15:51;;;;;;;13.90;3.15;;;7.30;99.90;;;;;;5024251;28;20026;-70
2023/01/30 02:18:17;;;;;;;11.77;2.25;;;7.30;99.90;;;;;;5009087;28;20096;-71
2023/01/30 02:21:14;;;;;;;9.10;2.80;;;7.30;99.90;;;;;;5009027;28;20046;-71
2023/01/30 02:24:11;;;;;;;9.32;2.40;;;7.20;99.90;;;;;;5005355;28;20038;-71
2023/01/30 02:26:57;;;;;;;8.48;2.25;;;7.20;99.90;;;;;;5006768;28;20410;-69
2023/01/30 02:29:58;;;;;;;11.13;3.47;;;7.20;99.90;;;;;;5007996;28;20036;-70
2023/01/30 02:32:38;;;;;;;;;;;7.20;99.90;;;;;;5007653;28;20034;-70
2023/01/30 02:35:31;;;;;;;9.85;2.00;;;7.10;99.90;;;;;;5023433;28;20020;-71
2023/01/30 02:38:18;;;;;;;13.25;2.05;;;7.10;99.90;;;;;;5004889;28;20037;-71
2023/01/30 02:41:10;;;;;;;16.80;3.30;;;7.10;99.90;;;;;;5005616;28;20034;-70
2023/01/30 02:43:39;;;;;;;13.02;2.70;;;7.10;99.90;;;;;;5004636;28;20030;-70
2023/01/30 02:46:14;;;;;;;10.52;2.72;;;7.00;99.90;;;;;;5008369;28;20042;-70
2023/01/30 02:48:56;;;;;;;9.88;2.20;;;7.10;99.90;;;;;;5008626;28;20061;-70
2023/01/30 02:51:34;;;;;;;10.15;2.13;;;7.00;99.90;;;;;;5008079;28;20124;-70
2023/01/30 02:54:00;;;;;;;9.35;2.78;;;7.00;99.90;;;;;;5007979;28;20045;-72
2023/01/30 02:56:26;;;;;;;14.20;2.13;;;7.00;99.90;;;;;;5008600;28;20041;-70
2023/01/30 02:59:01;;;;;;;8.55;2.67;;;7.00;99.90;;;;;;5008285;28;20061;-70
2023/01/30 03:01:50;;;;;;;15.63;2.90;;;7.00;99.90;;;;;;5008664;28;20048;-70
2023/01/30 03:04:30;;;;;;;13.95;1.95;;;7.00;99.90;;;;;;5005514;28;20117;-70
2023/01/30 03:07:26;;;;;;;13.05;3.63;;;7.00;99.90;;;;;;5007477;28;20045;-71
2023/01/30 03:10:13;;;;;;;11.70;1.63;;;7.00;99.90;;;;;;5006946;28;20049;-68
2023/01/30 03:12:46;;;;;;;11.90;1.60;;;7.00;99.90;;;;;;5003540;28;20119;-69
2023/01/30 03:15:38;;;;;;;12.15;1.60;;;7.00;99.90;;;;;;5007890;28;20441;-71
2023/01/30 03:18:04;;;;;;;12.82;2.10;;;7.10;99.90;;;;;;5002917;28;20500;-70
2023/01/30 03:20:30;;;;;;;9.93;2.45;;;7.10;99.90;;;;;;5008502;28;20517;-71
2023/01/30 03:22:56;;;;;;;12.13;2.00;;;7.10;99.90;;;;;;5007596;28;20069;-71
2023/01/30 03:25:25;;;;;;;9.35;2.30;;;7.10;99.90;;;;;;5007812;28;20495;-70
2023/01/30 03:27:52;;;;;;;17.13;2.45;;;7.10;99.90;;;;;;5006592;28;20499;-72
2023/01/30 03:30:18;;;;;;;13.50;2.90;;;7.20;99.90;;;;;;5006444;28;20026;-70
2023/01/30 03:32:44;;;;;;;10.00;2.00;;;7.10;99.90;;;;;;5007828;28;20815;-72
2023/01/30 03:35:09;;;;;;;6.70;1.73;;;7.20;99.90;;;;;;5006430;28;20037;-71
2023/01/30 03:37:35;;;;;;;8.65;2.47;;;7.20;99.90;;;;;;5006781;28;20495;-71
2023/01/30 03:40:01;;;;;;;11.60;2.33;;;7.20;99.90;;;;;;5007645;28;20037;-71
2023/01/30 03:42:27;;;;;;;10.13;1.98;;;7.30;99.90;;;;;;5006174;28;20033;-71
2023/01/30 03:44:52;;;;;;;14.68;1.95;;;7.30;99.90;;;;;;5011531;28;20402;-70
2023/01/30 03:47:18;;;;;;;7.43;2.17;;;7.30;99.90;;;;;;5007157;28;20503;-71
2023/01/30 03:49:44;;;;;;;14.10;2.15;;;7.30;99.90;;;;;;5005858;28;20120;-71
2023/01/30 03:52:09;;;;;;;9.40;2.03;;;7.30;99.90;;;;;;5004227;28;20761;-71
2023/01/30 03:54:35;;;;;;;15.25;1.67;;;7.40;99.90;;;;;;5007589;28;20047;-71
2023/01/30 03:57:00;;;;;;;15.27;3.03;;;7.40;99.90;;;;;;5006051;28;20457;-71
2023/01/30 03:59:26;;;;;;;11.15;1.95;;;7.40;99.90;;;;;;5022543;28;20041;-70
2023/01/30 04:01:51;;;;;;;9.23;1.58;;;7.40;99.90;;;;;;5005346;28;20060;-72
2023/01/30 04:04:17;;;;;;;9.07;1.80;;;7.50;99.90;;;;;;5005760;28;20494;-71
2023/01/30 04:06:42;;;;;;;11.35;1.55;;;7.50;99.90;;;;;;5007275;28;20046;-71
2023/01/30 04:09:08;;;;;;;18.90;3.08;;;7.50;99.90;;;;;;5007496;28;20807;-70
2023/01/30 04:11:34;;;;;;;8.73;1.42;;;7.50;99.90;;;;;;5007793;28;20041;-70
2023/01/30 04:13:59;;;;;;;10.65;1.75;;;7.50;99.90;;;;;;5005796;28;20202;-72
2023/01/30 04:16:26;;;;;;;12.20;2.10;;;7.50;99.90;;;;;;5007250;28;20044;-71
2023/01/30 04:18:52;;;;;;;12.75;1.80;;;7.50;99.90;;;;;;5005638;28;20391;-72
2023/01/30 04:21:18;;;;;;;25.05;2.00;;;7.50;99.90;;;;;;5005032;28;20141;-70
2023/01/30 04:23:43;;;;;;;16.55;1.88;;;7.50;99.90;;;;;;5006969;28;20122;-71
2023/01/30 04:26:09;;;;;;;16.90;3.75;;;7.40;99.90;;;;;;5008625;28;20093;-70
2023/01/30 04:28:35;;;;;;;14.40;2.40;;;7.40;99.90;;;;;;5006244;28;20038;-71
2023/01/30 04:31:01;;;;;;;12.27;2.33;;;7.30;99.90;;;;;;5005621;28;20132;-72
2023/01/30 04:33:27;;;;;;;12.40;1.25;;;7.30;99.90;;;;;;5007158;28;20034;-70
2023/01/30 04:35:58;;;;;;;12.52;1.85;;;7.30;99.90;;;;;;5007021;28;20030;-71
2023/01/30 04:38:26;;;;;;;9.02;2.13;;;7.30;99.90;;;;;;5007377;28;20026;-70
2023/01/30 04:40:53;;;;;;;23.13;1.50;;;7.30;99.90;;;;;;5007021;28;20030;-71
2023/01/30 04:43:20;;;;;;;5.72;1.55;;;7.30;99.90;;;;;;5005516;28;20124;-72
2023/01/30 04:45:47;;;;;;;14.43;1.60;;;7.30;99.90;;;;;;5010202;28;20037;-70
2023/01/30 04:48:13;;;;;;;14.57;1.85;;;7.20;99.90;;;;;;5006300;28;20038;-71
2023/01/30 04:50:40;;;;;;;9.40;0.82;;;7.30;99.90;;;;;;5011071;28;20072;-69
2023/01/30 04:53:06;;;;;;;9.85;1.38;;;7.30;99.90;;;;;;5007649;28;20061;-71
2023/01/30 04:55:32;;;;;;;18.15;2.33;;;7.40;99.90;;;;;;5009862;28;20034;-71
2023/01/30 04:57:57;;;;;;;8.27;1.23;;;7.40;99.90;;;;;;5008424;28;20041;-70
2023/01/30 05:00:24;;;;;;;7.72;1.75;;;7.40;99.90;;;;;;5010524;28;20061;-71
2023/01/30 05:02:49;;;;;;;7.25;1.73;;;7.50;99.90;;;;;;5010683;28;20030;-71
2023/01/30 05:05:15;;;;;;;8.50;1.35;;;7.50;99.90;;;;;;5010813;28;20072;-70
2023/01/30 05:07:41;;;;;;;6.07;1.10;;;7.50;99.90;;;;;;5008004;28;20410;-73
2023/01/30 05:10:07;;;;;;;7.15;1.75;;;7.50;99.90;;;;;;5009178;28;20046;-71
2023/01/30 05:12:33;;;;;;;3.90;0.85;;;7.60;99.90;;;;;;5011121;28;20045;-71
2023/01/30 05:14:58;;;;;;;10.07;1.23;;;7.60;99.90;;;;;;5008688;28;20609;-71
2023/01/30 05:17:24;;;;;;;11.65;1.52;;;7.60;99.90;;;;;;5005020;28;20084;-71
2023/01/30 05:19:49;;;;;;;10.80;1.10;;;7.60;99.90;;;;;;5009127;28;20121;-71
2023/01/30 05:22:15;;;;;;;5.93;1.30;;;7.60;99.90;;;;;;5010247;28;20399;-72
2023/01/30 05:24:40;;;;;;;4.80;1.10;;;7.60;99.90;;;;;;5008347;28;20091;-73
2023/01/30 05:27:06;;;;;;;9.65;1.42;;;7.50;99.90;;;;;;5010058;28;20048;-71
2023/01/30 05:29:32;;;;;;;15.40;2.30;;;7.50;99.90;;;;;;5011707;28;20041;-71
2023/01/30 05:31:57;;;;;;;17.10;1.52;;;7.50;99.90;;;;;;5006216;28;20512;-72
2023/01/30 05:34:23;;;;;;;6.47;1.65;;;7.40;99.90;;;;;;5007266;28;20038;-71
2023/01/30 05:36:48;;;;;;;12.45;1.67;;;7.40;99.90;;;;;;5011312;28;20042;-72
2023/01/30 05:39:14;;;;;;;14.35;1.35;;;7.30;99.90;;;;;;5011717;28;20477;-71
2023/01/30 05:41:40;;;;;;;7.43;1.27;;;7.20;99.90;;;;;;5028071;28;20117;-71
2023/01/30 05:44:05;;;;;;;18.45;1.80;;;7.10;99.90;;;;;;5016806;28;20443;-72
2023/01/30 05:46:31;;;;;;;14.25;2.17;;;7.10;99.90;;;;;;5018659;28;20045;-71
2023/01/30 05:48:57;;;;;;;15.18;2.92;;;7.00;99.90;;;;;;5013836;28;20048;-70
2023/01/30 05:51:24;;;;;;;14.15;2.05;;;6.90;99.90;;;;;;5005778;28;20050;-71
2023/01/30 05:53:50;;;;;;;17.77;1.85;;;6.80;99.90;;;;;;5008607;28;20544;-71
2023/01/30 05:56:17;;;;;;;14.93;2.17;;;6.80;99.90;;;;;;5005564;28;20062;-70
2023/01/30 05:58:43;;;;;;;14.43;1.50;;;6.80;99.90;;;;;;5011517;28;20046;-74
2023/01/30 06:01:11;;;;;;;12.20;1.60;;;6.70;99.90;;;;;;5005088;28;20714;-72
2023/01/30 06:03:37;;;;;;;15.68;2.58;;;6.70;99.90;;;;;;5013094;28;20069;-70
2023/01/30 06:06:04;;;;;;;11.70;1.67;;;6.70;99.90;;;;;;5015786;28;20033;-72
2023/01/30 06:08:30;;;;;;;17.98;2.35;;;6.60;99.90;;;;;;5012734;28;20084;-74
2023/01/30 06:11:16;;;;;;;9.95;1.77;;;6.60;99.90;;;;;;5010085;28;20077;-71
2023/01/30 06:13:42;;;;;;;12.68;2.47;;;6.50;99.90;;;;;;5003014;28;20156;-70
2023/01/30 06:16:10;;;;;;;26.00;2.63;;;6.50;99.90;;;;;;4999707;28;20128;-72
2023/01/30 06:18:36;;;;;;;12.25;2.20;;;6.50;99.90;;;;;;5005127;28;20089;-71
2023/01/30 06:21:02;;;;;;;16.90;3.72;;;6.40;99.90;;;;;;5008958;28;20437;-71
2023/01/30 06:23:28;;;;;;;22.80;2.67;;;6.40;99.90;;;;;;5006487;28;20068;-70
2023/01/30 06:25:54;;;;;;;21.80;2.75;;;6.30;99.90;;;;;;5009069;28;20083;-73
2023/01/30 06:28:21;;;;;;;21.38;2.70;;;6.30;99.90;;;;;;5006879;28;20030;-72
2023/01/30 06:30:47;;;;;;;19.35;2.67;;;6.30;99.90;;;;;;5007811;28;20057;-71
2023/01/30 06:33:13;;;;;;;20.58;3.05;;;6.30;99.90;;;;;;5006996;28;20553;-71
2023/01/30 06:35:40;;;;;;;16.70;2.53;;;6.40;99.90;;;;;;5005684;28;20161;-71
2023/01/30 06:38:10;;;;;;;16.15;1.63;;;6.30;99.90;;;;;;5006998;28;20038;-71
2023/01/30 06:40:47;;;;;;;13.93;2.00;;;6.30;99.90;;;;;;5008357;28;20525;-70
2023/01/30 06:43:13;;;;;;;15.75;2.53;;;6.30;99.90;;;;;;4995387;28;20065;-70
2023/01/30 06:45:39;;;;;;;15.02;2.33;;;6.20;99.90;;;;;;5006294;28;20490;-71
2023/01/30 06:48:05;;;;;;;23.77;2.33;;;6.20;99.90;;;;;;5004416;28;20034;-70
2023/01/30 06:50:31;;;;;;;14.85;1.77;;;6.20;99.90;;;;;;5006894;28;20092;-70
2023/01/30 06:53:02;;;;;;;14.00;3.00;;;6.20;99.90;;;;;;5008701;28;20510;-72
2023/01/30 06:55:28;;;;;;;12.05;1.55;;;6.30;99.90;;;;;;5004879;28;20042;-71
2023/01/30 06:58:05;;;;;;;13.32;1.98;;;6.30;99.90;;;;;;5001701;28;20033;-71
2023/01/30 07:00:31;;;;;;;13.88;1.80;;;6.30;99.90;;;;;;4999066;28;20076;-72
2023/01/30 07:02:57;;;;;;;23.63;2.30;;;6.30;99.90;;;;;;5004420;28;20444;-71
2023/01/30 07:05:22;;;;;;;17.00;2.15;;;6.40;99.90;;;;;;4999328;28;20061;-71
2023/01/30 07:07:48;;;;;;;19.38;2.67;;;6.30;99.90;;;;;;5004888;28;20125;-71
2023/01/30 07:10:13;;;;;;;11.70;2.33;;;6.30;99.90;;;;;;5005107;28;20129;-71
2023/01/30 07:12:39;;;;;;;19.60;2.38;;;6.30;99.90;;;;;;5003691;28;20026;-71
2023/01/30 07:15:05;;;;;;;14.48;2.55;;;6.30;99.90;;;;;;4998645;28;20125;-71
2023/01/30 07:17:31;;;;;;;21.70;2.88;;;6.20;99.90;;;;;;4990347;28;20038;-71
2023/01/30 07:19:57;;;;;;;15.73;1.80;;;6.10;99.90;;;;;;5003236;28;20127;-71
2023/01/30 07:22:22;;;;;;;13.98;2.00;;;6.10;99.90;;;;;;5007811;28;20138;-71
2023/01/30 07:24:48;;;;;;;11.32;4.43;;;6.10;99.90;;;;;;5000372;28;20072;-71
2023/01/30 07:27:14;;;;;;;14.40;2.80;;;6.20;99.90;;;;;;5001529;28;20591;-72
2023/01/30 07:29:40;;;;;;;16.27;1.65;;;6.20;99.90;;;;;;5005173;28;20033;-72
2023/01/30 07:32:06;;;;;;;16.08;3.65;;;6.30;99.90;;;;;;5005175;28;20038;-71
2023/01/30 07:34:32;;;;;;;15.32;2.30;;;6.30;99.90;;;;;;5004845;28;20040;-71
2023/01/30 07:36:58;;;;;;;19.88;3.75;;;6.20;99.90;;;;;;5003998;28;20066;-73
2023/01/30 07:39:24;;;;;;;10.05;1.70;;;6.20;99.90;;;;;;4998347;28;20065;-72
2023/01/30 07:41:50;;;;;;;14.30;2.33;;;6.20;99.90;;;;;;5000232;28;20034;-72
2023/01/30 07:44:15;;;;;;;13.18;2.28;;;6.20;99.90;;;;;;5002198;28;20034;-69
2023/01/30 07:46:41;;;;;;;28.05;2.50;;;6.30;99.90;;;;;;5002208;28;20056;-73
2023/01/30 07:49:08;;;;;;;12.00;3.00;;;6.20;99.90;;;;;;5005672;28;20095;-72
2023/01/30 07:51:34;;;;;;;16.10;2.72;;;6.20;99.90;;;;;;5002642;28;20042;-73
2023/01/30 07:54:00;;;;;;;13.25;2.20;;;6.20;99.90;;;;;;5000272;28;20113;-72
2023/01/30 07:56:27;;;;;;;13.38;1.67;;;6.20;99.90;;;;;;5005653;28;20527;-73
2023/01/30 07:58:54;;;;;;;17.73;2.67;;;6.20;99.90;;;;;;5019640;28;20536;-72
2023/01/30 08:01:20;;;;;;;22.25;2.70;;;6.30;99.90;;;;;;5000878;28;20406;-71
2023/01/30 08:03:47;;;;;;;20.15;2.58;;;6.20;99.90;;;;;;4998504;28;20022;-72
2023/01/30 08:06:14;;;;;;;8.68;1.63;;;6.30;99.90;;;;;;5004735;28;20041;-72
2023/01/30 08:08:40;;;;;;;18.38;2.22;;;6.30;99.90;;;;;;5011997;28;20117;-72
2023/01/30 08:11:06;;;;;;;16.33;2.60;;;6.30;99.90;;;;;;4996595;28;20041;-71
2023/01/30 08:13:32;;;;;;;18.35;1.98;;;6.40;99.90;;;;;;5006476;28;20026;-70
2023/01/30 08:16:01;;;;;;;13.65;3.20;;;6.40;99.90;;;;;;5003989;28;20087;-73
2023/01/30 08:18:28;;;;;;;12.98;2.35;;;6.40;99.90;;;;;;5005079;28;20033;-70
2023/01/30 08:21:01;;;;;;;20.92;3.13;;;6.50;99.90;;;;;;5001808;28;20057;-73
2023/01/30 08:23:27;;;;;;;13.80;2.55;;;6.50;99.90;;;;;;5017989;28;20040;-71
2023/01/30 08:25:58;;;;;;;9.93;2.08;;;6.70;99.90;;;;;;5006006;28;20414;-71
2023/01/30 08:28:24;;;;;;;14.43;2.65;;;6.70;99.90;;;;;;5000438;28;20181;-71
2023/01/30 08:30:52;;;;;;;12.63;2.03;;;6.80;99.90;;;;;;5004095;28;20068;-72
2023/01/30 08:33:18;;;;;;;21.50;2.58;;;6.90;99.90;;;;;;5002779;28;20037;-71
2023/01/30 08:35:43;;;;;;;19.67;1.85;;;7.00;99.90;;;;;;4998698;28;20034;-72
2023/01/30 08:38:09;;;;;;;17.95;2.05;;;7.00;99.90;;;;;;5021269;28;20064;-71
2023/01/30 08:40:35;;;;;;;19.35;2.45;;;7.00;99.90;;;;;;5007876;28;20061;-71
2023/01/30 08:43:01;;;;;;;15.63;2.00;;;7.10;99.90;;;;;;5001796;28;20052;-71
2023/01/30 08:45:27;;;;;;;18.05;1.73;;;7.20;99.90;;;;;;5000467;28;20536;-72
2023/01/30 08:48:00;;;;;;;20.92;1.63;;;7.20;99.90;;;;;;5003243;28;20033;-71
2023/01/30 08:50:26;;;;;;;31.35;4.85;;;7.40;99.90;;;;;;5001688;28;20431;-72
2023/01/30 08:52:52;;;;;;;16.20;2.10;;;7.50;99.90;;;;;;5000589;28;20088;-72
2023/01/30 08:55:17;;;;;;;9.40;2.88;;;7.50;99.90;;;;;;5009516;28;20097;-71
2023/01/30 08:57:43;;;;;;;17.80;3.05;;;7.60;99.90;;;;;;5001597;28;20045;-72
2023/01/30 09:00:10;;;;;;;14.55;1.92;;;7.50;99.90;;;;;;4995573;28;20137;-71
2023/01/30 09:02:36;;;;;;;12.05;2.60;;;7.60;99.90;;;;;;5000993;28;20127;-71
2023/01/30 09:05:01;;;;;;;8.25;2.13;;;7.60;99.90;;;;;;5003354;28;20514;-71
2023/01/30 09:07:27;;;;;;;19.27;3.85;;;7.60;99.90;;;;;;4994175;28;20030;-72
2023/01/30 09:09:53;;;;;;;19.85;2.20;;;7.50;99.90;;;;;;4998371;28;20160;-72
2023/01/30 09:12:19;;;;;;;13.05;1.75;;;7.60;99.90;;;;;;5013112;28;20034;-71
2023/01/30 09:14:45;;;;;;;12.18;1.60;;;7.50;99.90;;;;;;5002610;28;20122;-73
2023/01/30 09:17:11;;;;;;;11.23;1.50;;;7.60;99.90;;;;;;4996747;28;20031;-71
2023/01/30 09:19:36;;;;;;;18.05;2.38;;;7.60;99.90;;;;;;5006428;28;20633;-72
2023/01/30 09:22:02;;;;;;;13.23;2.10;;;7.70;99.90;;;;;;5009374;28;20053;-71
2023/01/30 09:24:28;;;;;;;13.32;2.35;;;7.70;99.90;;;;;;5001025;28;20145;-72
2023/01/30 09:26:56;;;;;;;16.23;2.40;;;7.70;99.90;;;;;;4995729;28;20132;-71
2023/01/30 09:29:22;;;;;;;16.13;2.25;;;7.80;99.90;;;;;;4999983;28;20038;-74
2023/01/30 09:31:48;;;;;;;9.45;2.78;;;7.80;99.90;;;;;;4999228;28;20409;-72
2023/01/30 09:34:14;;;;;;;10.98;1.70;;;7.90;99.90;;;;;;5000867;28;20043;-71
2023/01/30 09:36:39;;;;;;;14.02;2.03;;;7.90;99.90;;;;;;5004342;28;20038;-71
2023/01/30 09:39:05;;;;;;;11.43;2.22;;;7.90;99.90;;;;;;5004314;28;20061;-70
2023/01/30 09:41:43;;;;;;;13.57;3.00;;;7.90;99.90;;;;;;5000901;28;20038;-71
2023/01/30 09:44:33;;;;;;;12.48;2.67;;;7.90;99.90;;;;;;5000453;28;20041;-72
2023/01/30 09:47:09;;;;;;;15.00;1.98;;;8.00;99.90;;;;;;5005204;28;20141;-71
2023/01/30 09:50:05;;;;;;;16.30;2.45;;;8.10;99.90;;;;;;5003793;28;20100;-71
2023/01/30 09:52:55;;;;;;;12.73;1.65;;;8.10;99.90;;;;;;5022884;28;20052;-71
2023/01/30 09:55:29;;;;;;;20.10;2.23;;;8.20;99.90;;;;;;4997454;28;20056;-70
2023/01/30 09:57:57;;;;;;;15.88;2.50;;;8.20;99.90;;;;;;5004012;28;20037;-72
2023/01/30 10:00:29;;;;;;;17.45;2.60;;;8.20;99.90;;;;;;5006868;28;20045;-70
2023/01/30 10:03:07;;;;;;;11.80;2.00;;;8.20;99.90;;;;;;5004343;28;20127;-74
2023/01/30 10:05:58;;;;;;;12.90;1.42;;;8.30;99.90;;;;;;5003674;28;20038;-70
2023/01/30 10:08:29;;;;;;;9.75;2.40;;;8.20;99.90;;;;;;5001895;28;20042;-72
2023/01/30 10:11:18;;;;;;;12.90;2.53;;;8.20;99.90;;;;;;4999200;28;20046;-71
2023/01/30 10:14:09;;;;;;;15.07;3.38;;;8.20;99.90;;;;;;5002303;28;20125;-72
2023/01/30 10:16:49;;;;;;;16.20;2.38;;;8.20;99.90;;;;;;5001059;28;20058;-71
2023/01/30 10:19:26;;;;;;;9.70;1.83;;;8.30;99.90;;;;;;5006834;28;20053;-72
2023/01/30 10:22:10;;;;;;;11.13;2.13;;;8.30;99.90;;;;;;5007903;28;20037;-71
2023/01/30 10:24:54;;;;;;;11.75;2.30;;;8.40;99.90;;;;;;5014912;28;20616;-71
2023/01/30 10:27:22;;;;;;;13.45;2.20;;;8.40;99.90;;;;;;5005152;28;20038;-71
2023/01/30 10:29:55;;;;;;;16.63;2.50;;;8.40;99.90;;;;;;5006785;28;20541;-71
2023/01/30 10:32:31;;;;;;;22.27;2.00;;;8.50;99.90;;;;;;5003506;28;20038;-71
2023/01/30 10:35:03;;;;;;;14.07;1.85;;;8.60;99.90;;;;;;5002262;28;20049;-71
2023/01/30 10:37:34;;;;;;;12.90;2.65;;;8.50;99.90;;;;;;5005921;28;20137;-72
2023/01/30 10:40:23;;;;;;;15.90;1.52;;;8.60;99.90;;;;;;5010129;28;20521;-71
2023/01/30 10:43:01;;;;;;;12.13;1.85;;;8.60;99.90;;;;;;5005971;28;20037;-72
2023/01/30 10:45:41;;;;;;;10.77;1.80;;;8.60;99.90;;;;;;5008492;28;20042;-71
2023/01/30 10:48:38;;;;;;;16.13;3.33;;;8.60;99.90;;;;;;5000210;28;20041;-71
2023/01/30 10:51:12;;;;;;;16.63;2.17;;;8.60;99.90;;;;;;5006058;28;20029;-71
2023/01/30 10:54:15;;;;;;;15.70;3.17;;;8.60;99.90;;;;;;4975155;28;20066;-71
2023/01/30 10:57:06;;;;;;;28.85;3.30;;;8.60;99.90;;;;;;4976072;28;20049;-72
2023/01/30 11:00:03;;;;;;;25.02;2.40;;;8.60;99.90;;;;;;4997588;28;20125;-72
2023/01/30 11:02:59;;;;;;;18.33;3.35;;;8.60;99.90;;;;;;4980087;28;20040;-72
2023/01/30 11:05:28;;;;;;;12.82;1.67;;;8.60;99.90;;;;;;4973782;28;20216;-71
2023/01/30 11:07:54;;;;;;;19.40;3.90;;;8.60;99.90;;;;;;4974163;28;20454;-71
2023/01/30 11:10:26;;;;;;;18.77;3.65;;;8.60;99.90;;;;;;4977734;28;20034;-71
2023/01/30 11:12:59;;;;;;;35.08;4.97;;;8.60;99.90;;;;;;4979340;28;20050;-71
2023/01/30 11:15:44;;;;;;;27.15;2.35;;;8.80;99.90;;;;;;4976909;28;20163;-70
2023/01/30 11:18:11;;;;;;;15.00;2.78;;;8.80;99.90;;;;;;4972425;28;20193;-72
2023/01/30 11:20:44;;;;;;;18.65;2.65;;;8.80;99.90;;;;;;4980489;28;20042;-72
2023/01/30 11:23:31;;;;;;;13.75;1.40;;;8.70;99.90;;;;;;4996167;28;20470;-71
2023/01/30 11:25:58;;;;;;;8.50;2.35;;;8.70;99.90;;;;;;4979925;28;20038;-72
2023/01/30 11:28:25;;;;;;;14.70;2.10;;;8.70;99.90;;;;;;4972404;28;20132;-72
2023/01/30 11:31:00;;;;;;;12.75;2.42;;;8.70;99.90;;;;;;4980123;28;20076;-71
2023/01/30 11:33:39;;;;;;;18.60;2.60;;;8.80;99.90;;;;;;4978777;28;20033;-71
2023/01/30 11:36:24;;;;;;;23.65;2.53;;;8.70;99.90;;;;;;4977574;28;20034;-71
2023/01/30 11:39:04;;;;;;;15.60;3.28;;;8.80;99.90;;;;;;4979335;28;20450;-71
2023/01/30 11:41:30;;;;;;;13.40;1.90;;;9.00;99.90;;;;;;4977872;28;20482;-72
2023/01/30 11:44:01;;;;;;;19.35;2.72;;;9.20;99.90;;;;;;4974913;28;20042;-71
2023/01/30 11:46:32;;;;;;;17.45;2.55;;;9.50;99.90;;;;;;4974747;28;20141;-72
2023/01/30 11:49:02;;;;;;;17.02;2.28;;;9.50;99.90;;;;;;4976095;28;20143;-73
2023/01/30 11:51:31;;;;;;;21.80;2.00;;;9.40;99.90;;;;;;4976205;28;20070;-73
2023/01/30 11:54:03;;;;;;;15.05;2.00;;;9.40;99.90;;;;;;4976622;28;20080;-72
2023/01/30 11:56:58;;;;;;;10.50;2.90;;;9.50;99.90;;;;;;4972120;28;20042;-71
2023/01/30 11:59:30;;;;;;;15.07;3.70;;;9.50;99.90;;;;;;4975292;28;20078;-71
2023/01/30 12:02:07;;;;;;;11.27;3.05;;;9.50;99.90;;;;;;4976754;28;20034;-71
2023/01/30 12:04:33;;;;;;;14.52;1.95;;;9.40;99.90;;;;;;4993289;28;20046;-71
2023/01/30 12:07:15;;;;;;;15.95;2.03;;;9.40;99.90;;;;;;4973166;28;20034;-71
2023/01/30 12:09:41;;;;;;;24.52;2.58;;;9.40;99.90;;;;;;4970534;28;20374;-72
2023/01/30 12:12:42;;;;;;;16.08;2.85;;;9.40;99.90;;;;;;4977971;28;20046;-71
2023/01/30 12:15:21;;;;;;;18.40;2.42;;;9.40;99.90;;;;;;4965371;28;20104;-71
2023/01/30 12:18:12;;;;;;;12.63;2.70;;;9.30;99.90;;;;;;4977819;28;20038;-72
2023/01/30 12:20:59;;;;;;;9.13;1.95;;;9.30;99.90;;;;;;4975009;28;20565;-72
2023/01/30 12:23:47;;;;;;;23.42;2.38;;;9.30;99.90;;;;;;4974359;28;20047;-71
2023/01/30 12:26:20;;;;;;;18.27;2.35;;;9.30;99.90;;;;;;4973813;28;20031;-72
2023/01/30 12:28:49;;;;;;;21.80;2.55;;;9.30;99.90;;;;;;4978992;28;20035;-73
2023/01/30 12:31:26;;;;;;;19.02;3.13;;;9.10;99.90;;;;;;4977376;28;20037;-71
2023/01/30 12:33:54;;;;;;;19.27;2.70;;;9.10;99.90;;;;;;4975006;28;20361;-72
2023/01/30 12:36:28;;;;;;;12.40;1.70;;;9.00;99.90;;;;;;4977919;28;20426;-72
2023/01/30 12:39:13;;;;;;;7.88;1.58;;;9.00;99.90;;;;;;4991626;28;20042;-75
2023/01/30 12:41:42;;;;;;;14.10;2.55;;;9.00;99.90;;;;;;4975134;28;20046;-72
2023/01/30 12:44:29;;;;;;;13.35;1.55;;;9.10;99.90;;;;;;4975995;28;20038;-71
2023/01/30 12:46:54;;;;;;;14.27;2.85;;;9.10;99.90;;;;;;4993316;28;20050;-72
2023/01/30 12:49:48;;;;;;;23.33;2.95;;;9.20;99.90;;;;;;4974548;28;20597;-72
2023/01/30 12:52:56;;;;;;;14.57;2.00;;;9.20;99.90;;;;;;4973589;28;20050;-73
2023/01/30 12:55:47;;;;;;;17.02;2.45;;;9.30;99.90;;;;;;4973244;28;20038;-71
2023/01/30 12:58:15;;;;;;;;;;;9.50;99.90;;;;;;4972853;28;20051;-73
2023/01/30 13:00:48;;;;;;;15.27;2.00;;;9.60;99.90;;;;;;4979053;28;20351;-71
2023/01/30 13:03:35;;;;;;;12.80;2.00;;;9.70;99.90;;;;;;4976931;28;20057;-72
2023/01/30 13:06:46;;;;;;;16.10;3.00;;;9.70;99.90;;;;;;4986894;28;20044;-72
2023/01/30 13:09:22;;;;;;;;;;;9.70;99.90;;;;;;4965971;28;20038;-72
2023/01/30 13:11:54;;;;;;;18.27;2.38;;;9.60;99.90;;;;;;4977433;28;19929;-71
2023/01/30 13:14:32;;;;;;;15.25;1.60;;;9.50;99.90;;;;;;4981893;28;20113;-71
2023/01/30 13:17:26;;;;;;;12.38;2.13;;;9.60;99.90;;;;;;4976170;28;20121;-72
2023/01/30 13:20:15;;;;;;;18.15;2.45;;;9.50;99.90;;;;;;4978971;28;20035;-70